Chapman, Illinois
Current Conditions -  °F | °C
As of 4:55 AM on Sunday 23 Nov 2014 (Local Time) from K3LF Reporting Station
Broken Clouds Broken Clouds  
Wind Chill: 43°   Ceiling: 10000
Heat Index: 49°   Visibility: 10mi
Dew Point: 43°   Wind: 13mph
Humidity: 80%   Direction: 160°SSE
Pressure: 29.77"   Gusts: NA
Location:  39.1009°N, 89.3067°W
Report Text: K3LF 231055Z AUTO 16011KT 10SM BKN100 09/06 A2977 RMK AO2 T00920060
Loading
Personal Weather Stations






























Interactive Weather Map New forecast layout! Learn more

10-Day Weather Forecast

Advertisements
Track Severe Weather on mobile